Time;durP1;ratioP1;P1;durP2;ratioP2;P2;SDS_P1;SDS_P2;PMS_P1;PMS_P2;Temp;Humidity;BMP_temperature;BMP_pressure;BME280_temperature;BME280_humidity;BME280_pressure;Samples;Min_cycle;Max_cycle;Signal;HPM_P1;HPM_P2
2024/03/09 00:00:50;;;;;;;55.17;33.45;;;;;;;;;;5013690;28;20014;-96
2024/03/09 00:03:15;;;;;;;55.90;33.25;;;;;;;;;;5014281;28;20026;-95
2024/03/09 00:05:40;;;;;;;58.95;32.42;;;;;;;;;;5013774;28;20014;-94
2024/03/09 00:08:07;;;;;;;54.28;30.75;;;;;;;;;;5013966;28;20024;-95
2024/03/09 00:10:32;;;;;;;56.20;31.83;;;;;;;;;;5013795;28;20018;-95
2024/03/09 00:12:58;;;;;;;56.40;31.35;;;;;;;;;;5013768;28;20025;-96
2024/03/09 00:15:24;;;;;;;62.22;32.50;;;;;;;;;;5013689;28;20018;-96
2024/03/09 00:17:51;;;;;;;57.20;31.75;;;;;;;;;;5013570;28;20029;-95
2024/03/09 00:20:21;;;;;;;57.72;32.30;;;;;;;;;;5013612;28;20024;-96
2024/03/09 00:22:46;;;;;;;54.92;32.05;;;;;;;;;;5013514;28;20117;-96
2024/03/09 00:25:12;;;;;;;62.28;33.08;;;;;;;;;;5013303;28;20117;-94
2024/03/09 00:27:40;;;;;;;59.20;32.55;;;;;;;;;;5012729;28;20443;-94
2024/03/09 00:30:10;;;;;;;60.55;33.10;;;;;;;;;;5013627;28;20495;-96
2024/03/09 00:32:35;;;;;;;62.65;33.40;;;;;;;;;;5013270;28;20475;-95
2024/03/09 00:35:02;;;;;;;62.03;33.15;;;;;;;;;;5013047;28;20022;-95
2024/03/09 00:37:27;;;;;;;59.97;32.65;;;;;;;;;;5012364;28;20021;-95
2024/03/09 00:39:52;;;;;;;55.33;32.72;;;;;;;;;;5013033;28;20030;-95
2024/03/09 00:42:19;;;;;;;65.88;32.78;;;;;;;;;;5013213;28;20487;-95
2024/03/09 00:44:45;;;;;;;58.05;32.08;;;;;;;;;;5013381;28;20076;-96
2024/03/09 00:47:10;;;;;;;62.13;32.88;;;;;;;;;;5012609;28;20025;-95
2024/03/09 00:49:35;;;;;;;59.10;32.15;;;;;;;;;;5012928;28;20029;-94
2024/03/09 00:52:03;;;;;;;60.25;32.50;;;;;;;;;;5012567;28;20032;-95
2024/03/09 00:54:28;;;;;;;59.70;33.53;;;;;;;;;;5013117;28;20038;-95
2024/03/09 00:56:54;;;;;;;57.47;32.05;;;;;;;;;;5012813;28;20424;-95
2024/03/09 00:59:19;;;;;;;60.63;33.17;;;;;;;;;;5013915;28;20080;-95
2024/03/09 01:01:47;;;;;;;58.08;32.97;;;;;;;;;;5012804;28;20014;-95
2024/03/09 01:04:12;;;;;;;63.80;34.72;;;;;;;;;;5012717;28;20022;-94
2024/03/09 01:06:38;;;;;;;59.20;31.38;;;;;;;;;;5013361;28;20029;-96
2024/03/09 01:09:03;;;;;;;57.20;30.67;;;;;;;;;;5012065;28;20014;-95
2024/03/09 01:11:28;;;;;;;58.58;32.72;;;;;;;;;;5012667;28;20025;-95
2024/03/09 01:13:54;;;;;;;53.85;31.38;;;;;;;;;;5012737;28;20492;-96
2024/03/09 01:16:19;;;;;;;54.60;30.75;;;;;;;;;;5013643;28;20022;-95
2024/03/09 01:18:44;;;;;;;55.25;32.08;;;;;;;;;;5012117;28;20037;-96
2024/03/09 01:21:09;;;;;;;59.08;32.05;;;;;;;;;;5012248;28;20376;-96
2024/03/09 01:23:35;;;;;;;58.50;33.13;;;;;;;;;;5012176;28;20371;-96
2024/03/09 01:26:00;;;;;;;58.97;30.38;;;;;;;;;;5012455;28;20010;-95
2024/03/09 01:28:25;;;;;;;55.97;31.90;;;;;;;;;;5012235;28;20018;-95
2024/03/09 01:30:50;;;;;;;56.25;32.50;;;;;;;;;;5012450;28;20022;-94
2024/03/09 01:33:16;;;;;;;58.78;32.47;;;;;;;;;;5011664;28;20041;-95
2024/03/09 01:35:41;;;;;;;60.25;30.45;;;;;;;;;;5013021;28;20056;-94
2024/03/09 01:38:08;;;;;;;53.28;31.00;;;;;;;;;;5013032;28;20033;-94
2024/03/09 01:40:33;;;;;;;70.03;32.67;;;;;;;;;;5011758;28;20029;-94
2024/03/09 01:42:58;;;;;;;60.83;30.95;;;;;;;;;;5012967;28;20021;-94
2024/03/09 01:45:24;;;;;;;62.35;31.70;;;;;;;;;;5012773;28;20028;-95
2024/03/09 01:47:50;;;;;;;66.55;32.28;;;;;;;;;;5011163;28;20072;-95
2024/03/09 01:50:15;;;;;;;63.75;32.70;;;;;;;;;;5011568;28;20022;-95
2024/03/09 01:52:43;;;;;;;58.70;32.15;;;;;;;;;;5012661;28;20021;-95
2024/03/09 01:55:09;;;;;;;57.83;32.28;;;;;;;;;;5011338;28;20071;-94
2024/03/09 01:57:35;;;;;;;61.83;31.13;;;;;;;;;;5011755;28;20068;-95
2024/03/09 02:00:01;;;;;;;70.05;32.20;;;;;;;;;;5011734;28;20072;-95
2024/03/09 02:02:26;;;;;;;59.28;33.20;;;;;;;;;;5011391;28;20486;-94
2024/03/09 02:04:52;;;;;;;63.65;31.45;;;;;;;;;;5011385;28;20018;-95
2024/03/09 02:07:17;;;;;;;61.80;31.75;;;;;;;;;;5012482;28;20154;-94
2024/03/09 02:09:43;;;;;;;62.70;32.53;;;;;;;;;;5011568;28;20072;-96
2024/03/09 02:12:09;;;;;;;60.40;32.80;;;;;;;;;;5011445;28;20014;-94
2024/03/09 02:14:36;;;;;;;63.63;30.77;;;;;;;;;;5011521;28;20080;-95
2024/03/09 02:17:07;;;;;;;57.95;30.08;;;;;;;;;;5011175;28;20018;-95
2024/03/09 02:19:32;;;;;;;72.05;32.58;;;;;;;;;;5011354;28;20024;-94
2024/03/09 02:21:58;;;;;;;65.90;33.35;;;;;;;;;;5011073;28;20026;-94
2024/03/09 02:24:25;;;;;;;58.08;30.50;;;;;;;;;;5011146;28;20116;-95
2024/03/09 02:26:50;;;;;;;63.83;32.53;;;;;;;;;;5011902;28;20037;-94
2024/03/09 02:29:18;;;;;;;64.43;32.25;;;;;;;;;;5011279;28;20534;-95
2024/03/09 02:31:44;;;;;;;58.45;31.73;;;;;;;;;;5012438;28;20022;-95
2024/03/09 02:34:09;;;;;;;58.88;32.30;;;;;;;;;;5011764;28;20030;-94
2024/03/09 02:36:38;;;;;;;55.85;29.52;;;;;;;;;;5010947;28;20049;-95
2024/03/09 02:39:07;;;;;;;60.58;33.08;;;;;;;;;;4999181;28;20018;-94
2024/03/09 02:41:33;;;;;;;57.90;30.73;;;;;;;;;;4991709;28;20054;-94
2024/03/09 02:43:58;;;;;;;62.10;33.55;;;;;;;;;;5005189;28;20034;-95
2024/03/09 02:46:27;;;;;;;64.43;32.10;;;;;;;;;;5010984;28;20014;-94
2024/03/09 02:48:55;;;;;;;57.17;31.92;;;;;;;;;;5011317;28;20373;-95
2024/03/09 02:51:25;;;;;;;54.40;31.42;;;;;;;;;;5011028;28;20026;-95
2024/03/09 02:53:50;;;;;;;58.10;32.45;;;;;;;;;;5010775;28;20060;-94
2024/03/09 02:56:17;;;;;;;65.82;32.58;;;;;;;;;;5011092;28;20111;-95
2024/03/09 02:58:42;;;;;;;59.45;31.30;;;;;;;;;;5012362;28;20021;-94
2024/03/09 03:01:07;;;;;;;69.53;33.20;;;;;;;;;;5012628;28;20542;-94
2024/03/09 03:04:02;;;;;;;65.88;32.55;;;;;;;;;;5014968;28;20059;-95
2024/03/09 03:06:28;;;;;;;67.10;32.42;;;;;;;;;;5015523;28;20037;-95
2024/03/09 03:08:56;;;;;;;63.35;31.52;;;;;;;;;;5015898;28;20064;-94
2024/03/09 03:11:22;;;;;;;69.20;33.50;;;;;;;;;;5014461;28;20022;-94
2024/03/09 03:13:48;;;;;;;58.80;30.83;;;;;;;;;;5015447;28;20053;-94
2024/03/09 03:16:26;;;;;;;55.47;30.77;;;;;;;;;;5015299;28;20018;-94
2024/03/09 03:18:51;;;;;;;62.35;31.60;;;;;;;;;;5014311;28;20099;-94
2024/03/09 03:21:16;;;;;;;64.35;31.67;;;;;;;;;;5015265;28;20050;-94
2024/03/09 03:23:42;;;;;;;60.13;32.15;;;;;;;;;;5014352;28;20108;-94
2024/03/09 03:26:11;;;;;;;57.50;32.95;;;;;;;;;;5013940;28;20026;-95
2024/03/09 03:28:37;;;;;;;63.30;32.13;;;;;;;;;;5013839;28;20053;-94
2024/03/09 03:31:05;;;;;;;63.28;33.08;;;;;;;;;;5015136;28;20014;-94
2024/03/09 03:33:30;;;;;;;62.00;30.40;;;;;;;;;;5013964;28;20061;-95
2024/03/09 03:35:56;;;;;;;57.70;31.85;;;;;;;;;;5015095;28;20022;-95
2024/03/09 03:38:21;;;;;;;62.45;32.92;;;;;;;;;;5013674;28;20026;-94
2024/03/09 03:40:46;;;;;;;69.13;31.40;;;;;;;;;;5013891;28;20104;-93
2024/03/09 03:43:11;;;;;;;60.08;30.90;;;;;;;;;;5013694;28;20018;-95
2024/03/09 03:45:37;;;;;;;57.63;31.30;;;;;;;;;;5014693;28;20030;-95
2024/03/09 03:48:04;;;;;;;63.15;31.02;;;;;;;;;;5013619;28;20060;-94
2024/03/09 03:50:29;;;;;;;57.90;30.70;;;;;;;;;;5014188;28;20033;-95
2024/03/09 03:52:55;;;;;;;56.85;31.75;;;;;;;;;;5013806;28;20030;-94
2024/03/09 03:55:20;;;;;;;56.90;31.42;;;;;;;;;;5013210;28;20463;-95
2024/03/09 03:57:47;;;;;;;59.33;30.20;;;;;;;;;;5014553;28;20376;-96
2024/03/09 04:00:12;;;;;;;61.03;31.45;;;;;;;;;;5013237;28;20491;-95
2024/03/09 04:02:41;;;;;;;57.97;31.63;;;;;;;;;;5013812;28;20022;-94
2024/03/09 04:05:07;;;;;;;59.53;32.47;;;;;;;;;;5013769;28;20014;-95
2024/03/09 04:07:33;;;;;;;64.63;32.17;;;;;;;;;;5013428;28;20020;-96
2024/03/09 04:10:02;;;;;;;61.15;33.20;;;;;;;;;;5013540;28;20030;-95
2024/03/09 04:12:28;;;;;;;64.15;32.97;;;;;;;;;;5012131;28;20101;-94
2024/03/09 04:14:54;;;;;;;62.90;30.45;;;;;;;;;;5013007;28;20132;-93
2024/03/09 04:17:20;;;;;;;59.25;31.38;;;;;;;;;;5014250;28;20022;-94
2024/03/09 04:19:45;;;;;;;62.08;29.60;;;;;;;;;;5013218;28;20160;-95
2024/03/09 04:22:12;;;;;;;59.30;29.00;;;;;;;;;;5014546;28;20053;-94
2024/03/09 04:24:41;;;;;;;58.33;31.20;;;;;;;;;;5013122;28;20068;-95
2024/03/09 04:27:10;;;;;;;56.13;31.13;;;;;;;;;;5012978;28;20117;-95
2024/03/09 04:29:36;;;;;;;61.95;31.90;;;;;;;;;;5012651;28;20026;-94
2024/03/09 04:32:01;;;;;;;57.22;30.17;;;;;;;;;;5012895;28;20105;-94
2024/03/09 04:34:26;;;;;;;56.95;32.25;;;;;;;;;;5012270;28;20113;-94
2024/03/09 04:36:52;;;;;;;59.55;31.60;;;;;;;;;;5012745;28;20018;-94
2024/03/09 04:39:18;;;;;;;57.75;30.30;;;;;;;;;;5013790;28;20022;-94
2024/03/09 04:41:44;;;;;;;58.67;28.63;;;;;;;;;;5012850;28;20022;-95
2024/03/09 04:44:09;;;;;;;59.75;30.90;;;;;;;;;;5013747;28;20029;-94
2024/03/09 04:46:36;;;;;;;55.20;29.45;;;;;;;;;;5013632;28;20014;-94
2024/03/09 04:49:03;;;;;;;59.33;28.77;;;;;;;;;;5012579;28;20018;-95
2024/03/09 04:51:29;;;;;;;62.05;28.95;;;;;;;;;;5012721;28;20029;-96
2024/03/09 04:53:54;;;;;;;59.08;29.98;;;;;;;;;;5012153;28;20026;-95
2024/03/09 04:56:19;;;;;;;61.55;32.05;;;;;;;;;;5012820;28;20045;-94
2024/03/09 04:58:44;;;;;;;62.17;31.13;;;;;;;;;;5012554;28;20231;-94
2024/03/09 05:01:10;;;;;;;52.15;28.88;;;;;;;;;;5012608;28;20024;-95
2024/03/09 05:03:35;;;;;;;59.05;30.17;;;;;;;;;;5013409;28;20010;-94
2024/03/09 05:06:01;;;;;;;67.88;30.13;;;;;;;;;;5012190;28;20025;-94
2024/03/09 05:08:26;;;;;;;58.55;30.35;;;;;;;;;;5011911;28;20480;-94
2024/03/09 05:10:51;;;;;;;55.92;28.58;;;;;;;;;;5013302;28;20089;-95
2024/03/09 05:13:16;;;;;;;57.17;31.45;;;;;;;;;;5011889;28;20065;-94
2024/03/09 05:15:42;;;;;;;54.33;31.30;;;;;;;;;;5011859;28;20029;-94
2024/03/09 05:18:09;;;;;;;57.55;28.33;;;;;;;;;;5011999;28;20026;-94
2024/03/09 05:20:34;;;;;;;53.15;28.75;;;;;;;;;;5012158;28;20061;-94
2024/03/09 05:23:03;;;;;;;61.50;30.85;;;;;;;;;;5012663;28;20041;-95
2024/03/09 05:25:28;;;;;;;61.75;30.60;;;;;;;;;;5012922;28;20017;-93
2024/03/09 05:27:54;;;;;;;62.35;30.50;;;;;;;;;;5011852;28;20018;-94
2024/03/09 05:30:20;;;;;;;61.67;30.48;;;;;;;;;;5011820;28;20109;-94
2024/03/09 05:32:57;;;;;;;59.33;29.52;;;;;;;;;;5011557;28;20029;-94
2024/03/09 05:35:26;;;;;;;52.15;30.92;;;;;;;;;;5011331;28;20033;-95
2024/03/09 05:37:52;;;;;;;55.95;30.20;;;;;;;;;;5012705;28;20381;-94
2024/03/09 05:40:18;;;;;;;56.90;31.13;;;;;;;;;;5011260;28;20032;-94
2024/03/09 05:42:44;;;;;;;60.63;30.52;;;;;;;;;;5011639;28;20045;-94
2024/03/09 05:45:15;;;;;;;52.65;29.48;;;;;;;;;;5011453;28;20018;-95
2024/03/09 05:47:44;;;;;;;56.33;30.17;;;;;;;;;;5012877;28;20013;-93
2024/03/09 05:50:09;;;;;;;54.67;30.73;;;;;;;;;;5011531;28;20029;-94
2024/03/09 05:52:35;;;;;;;55.33;29.50;;;;;;;;;;5011409;28;20049;-93
2024/03/09 05:55:00;;;;;;;59.72;30.98;;;;;;;;;;5011176;28;20018;-95
2024/03/09 05:57:25;;;;;;;61.85;31.50;;;;;;;;;;5012500;28;20014;-95
2024/03/09 05:59:52;;;;;;;63.22;31.98;;;;;;;;;;5011505;28;20471;-95
2024/03/09 06:02:17;;;;;;;54.65;30.05;;;;;;;;;;5011175;28;20371;-95
2024/03/09 06:04:42;;;;;;;66.15;32.45;;;;;;;;;;5012210;28;20022;-95
2024/03/09 06:07:08;;;;;;;51.47;28.80;;;;;;;;;;5011441;28;20365;-95
2024/03/09 06:09:33;;;;;;;60.78;30.95;;;;;;;;;;5011459;28;20014;-95
2024/03/09 06:11:59;;;;;;;60.40;31.45;;;;;;;;;;5012778;28;20022;-94
2024/03/09 06:14:26;;;;;;;57.22;28.58;;;;;;;;;;5010969;28;20065;-94
2024/03/09 06:16:52;;;;;;;52.78;28.73;;;;;;;;;;5011252;28;20025;-94
2024/03/09 06:19:18;;;;;;;53.08;28.95;;;;;;;;;;5027886;28;20028;-94
2024/03/09 06:21:44;;;;;;;56.10;29.83;;;;;;;;;;5030947;28;20031;-94
2024/03/09 06:24:10;;;;;;;59.95;29.00;;;;;;;;;;5031270;28;20447;-95
2024/03/09 06:26:36;;;;;;;55.83;28.92;;;;;;;;;;5030842;28;20024;-94
2024/03/09 06:29:01;;;;;;;57.63;28.88;;;;;;;;;;5016118;28;20026;-93
2024/03/09 06:31:27;;;;;;;56.42;29.23;;;;;;;;;;5011099;28;20041;-94
2024/03/09 06:33:52;;;;;;;59.47;32.00;;;;;;;;;;5010669;28;20133;-94
2024/03/09 06:36:18;;;;;;;56.55;28.00;;;;;;;;;;5013985;28;20091;-95
2024/03/09 06:38:43;;;;;;;53.22;28.98;;;;;;;;;;5014830;28;20010;-93
2024/03/09 06:41:09;;;;;;;57.92;28.15;;;;;;;;;;5014880;28;20392;-94
2024/03/09 06:43:35;;;;;;;59.55;28.15;;;;;;;;;;5015852;28;20410;-94
2024/03/09 06:46:01;;;;;;;63.20;30.65;;;;;;;;;;5014383;28;20030;-94
2024/03/09 06:48:27;;;;;;;61.28;31.23;;;;;;;;;;5014417;28;20022;-93
2024/03/09 06:50:53;;;;;;;60.50;31.17;;;;;;;;;;5015939;28;20026;-94
2024/03/09 06:53:19;;;;;;;56.60;30.92;;;;;;;;;;5014575;28;20046;-93
2024/03/09 06:55:46;;;;;;;63.10;31.55;;;;;;;;;;5015632;28;20014;-92
2024/03/09 06:58:11;;;;;;;55.17;30.33;;;;;;;;;;5015312;28;20032;-93
2024/03/09 07:00:37;;;;;;;57.80;30.33;;;;;;;;;;5013406;28;20026;-93
2024/03/09 07:03:04;;;;;;;61.58;29.67;;;;;;;;;;5014573;28;20419;-94
2024/03/09 07:05:36;;;;;;;55.38;28.40;;;;;;;;;;5002908;28;20013;-93
2024/03/09 07:08:03;;;;;;;60.38;28.02;;;;;;;;;;5014883;28;20041;-92
2024/03/09 07:10:28;;;;;;;55.00;27.67;;;;;;;;;;5014955;28;20022;-94
2024/03/09 07:12:54;;;;;;;52.53;28.38;;;;;;;;;;5015135;28;20435;-93
2024/03/09 07:15:21;;;;;;;56.30;28.00;;;;;;;;;;5013267;28;20026;-93
2024/03/09 07:17:48;;;;;;;56.78;30.50;;;;;;;;;;5015220;28;20491;-92
2024/03/09 07:20:16;;;;;;;59.20;27.48;;;;;;;;;;5015085;28;20030;-93
2024/03/09 07:22:42;;;;;;;52.70;28.17;;;;;;;;;;5015222;28;20456;-93
2024/03/09 07:25:09;;;;;;;51.67;28.60;;;;;;;;;;5013584;28;20028;-94
2024/03/09 07:27:35;;;;;;;55.85;28.50;;;;;;;;;;5013748;28;20030;-93
2024/03/09 07:30:02;;;;;;;64.00;31.25;;;;;;;;;;5014454;28;20022;-93
2024/03/09 07:32:27;;;;;;;56.28;28.33;;;;;;;;;;5013808;28;20021;-92
2024/03/09 07:34:52;;;;;;;57.33;29.33;;;;;;;;;;5014715;28;20034;-94
2024/03/09 07:37:17;;;;;;;57.67;28.63;;;;;;;;;;5010116;28;20025;-94
2024/03/09 07:39:43;;;;;;;61.72;26.70;;;;;;;;;;5013790;28;20029;-94
2024/03/09 07:42:09;;;;;;;51.03;24.65;;;;;;;;;;5012836;28;20025;-94
2024/03/09 07:44:34;;;;;;;56.58;27.25;;;;;;;;;;5004655;28;20033;-93
2024/03/09 07:47:00;;;;;;;51.17;25.80;;;;;;;;;;5011688;28;20040;-93
2024/03/09 07:49:25;;;;;;;50.33;26.52;;;;;;;;;;5011863;28;20022;-92
2024/03/09 07:51:50;;;;;;;47.28;24.88;;;;;;;;;;5011331;28;20018;-93
2024/03/09 07:54:15;;;;;;;49.38;25.35;;;;;;;;;;5013300;28;20021;-92
2024/03/09 07:56:47;;;;;;;49.75;25.45;;;;;;;;;;5016361;28;20033;-96
2024/03/09 07:59:12;;;;;;;46.30;23.42;;;;;;;;;;5011711;28;20033;-93
2024/03/09 08:01:38;;;;;;;49.10;24.63;;;;;;;;;;5013845;28;20438;-92
2024/03/09 08:04:04;;;;;;;40.65;20.77;;;;;;;;;;5013440;28;20040;-93
2024/03/09 08:06:29;;;;;;;40.45;22.02;;;;;;;;;;5013111;28;20029;-93
2024/03/09 08:08:55;;;;;;;45.47;21.73;;;;;;;;;;5012514;28;20121;-93
2024/03/09 08:11:22;;;;;;;41.30;21.15;;;;;;;;;;5012819;28;20018;-93
2024/03/09 08:13:47;;;;;;;42.05;20.33;;;;;;;;;;5014348;28;20077;-93
2024/03/09 08:16:13;;;;;;;41.63;22.65;;;;;;;;;;5012531;28;20502;-92
2024/03/09 08:18:38;;;;;;;36.90;20.75;;;;;;;;;;5013967;28;20044;-95
2024/03/09 08:21:04;;;;;;;42.13;19.90;;;;;;;;;;5011835;28;20018;-93
2024/03/09 08:23:29;;;;;;;49.72;21.13;;;;;;;;;;5013125;28;20022;-94
2024/03/09 08:25:55;;;;;;;36.85;20.02;;;;;;;;;;5013251;28;20464;-94
2024/03/09 08:28:20;;;;;;;32.92;18.67;;;;;;;;;;5013397;28;20088;-94
2024/03/09 08:30:47;;;;;;;36.47;20.42;;;;;;;;;;5013760;28;20057;-93
2024/03/09 08:33:12;;;;;;;30.98;16.95;;;;;;;;;;5013272;28;20026;-93
2024/03/09 08:35:38;;;;;;;44.50;17.70;;;;;;;;;;5012589;28;20026;-93
2024/03/09 08:38:04;;;;;;;30.35;16.15;;;;;;;;;;5013272;28;20097;-93
2024/03/09 08:40:30;;;;;;;31.55;16.35;;;;;;;;;;5013385;28;20495;-93
2024/03/09 08:42:56;;;;;;;28.58;15.63;;;;;;;;;;5012895;28;20026;-94
2024/03/09 08:45:22;;;;;;;32.30;15.85;;;;;;;;;;5013139;28;20017;-93
2024/03/09 08:47:50;;;;;;;26.10;12.85;;;;;;;;;;5013404;28;20101;-93
2024/03/09 08:50:16;;;;;;;28.27;13.40;;;;;;;;;;5014045;28;20021;-93
2024/03/09 08:52:41;;;;;;;21.50;11.80;;;;;;;;;;5011817;28;20021;-93
2024/03/09 08:55:10;;;;;;;21.15;11.13;;;;;;;;;;5016386;28;20025;-93
2024/03/09 08:57:35;;;;;;;18.38;10.05;;;;;;;;;;5021678;28;20104;-94
2024/03/09 09:00:01;;;;;;;18.40;8.63;;;;;;;;;;5011046;28;20113;-94
2024/03/09 09:02:26;;;;;;;13.48;7.78;;;;;;;;;;5011775;28;20045;-96
2024/03/09 09:04:52;;;;;;;16.45;7.47;;;;;;;;;;5011105;28;20427;-94
2024/03/09 09:07:18;;;;;;;17.85;7.38;;;;;;;;;;5012093;28;20018;-95
2024/03/09 09:09:43;;;;;;;15.02;6.93;;;;;;;;;;5013152;28;20072;-94
2024/03/09 09:12:11;;;;;;;15.60;7.15;;;;;;;;;;5018012;28;20045;-96
2024/03/09 09:14:37;;;;;;;9.75;6.07;;;;;;;;;;5012853;28;20433;-96
2024/03/09 09:17:06;;;;;;;15.93;6.43;;;;;;;;;;5014525;28;20116;-96
2024/03/09 09:19:31;;;;;;;11.68;6.60;;;;;;;;;;5018667;28;20030;-96
2024/03/09 09:21:57;;;;;;;11.95;6.00;;;;;;;;;;5011932;28;20025;-96
2024/03/09 09:24:22;;;;;;;13.32;6.18;;;;;;;;;;5012377;28;20021;-96
2024/03/09 09:26:47;;;;;;;9.40;5.80;;;;;;;;;;5012167;28;20113;-96
2024/03/09 09:29:13;;;;;;;9.07;6.28;;;;;;;;;;5012500;28;20018;-96
2024/03/09 09:31:38;;;;;;;15.77;5.30;;;;;;;;;;5013848;28;20025;-96
2024/03/09 09:34:03;;;;;;;8.93;4.85;;;;;;;;;;5017294;28;20052;-96
2024/03/09 09:36:29;;;;;;;11.07;4.50;;;;;;;;;;5014249;28;20495;-96
2024/03/09 09:38:56;;;;;;;9.70;3.97;;;;;;;;;;5014197;28;20018;-96
2024/03/09 09:41:23;;;;;;;9.30;3.58;;;;;;;;;;5017594;28;20022;-95
2024/03/09 09:43:53;;;;;;;8.85;3.47;;;;;;;;;;5020861;28;20068;-96
2024/03/09 09:46:18;;;;;;;8.30;3.33;;;;;;;;;;5020104;28;20315;-96
2024/03/09 09:48:43;;;;;;;7.90;3.55;;;;;;;;;;5012263;28;20025;-96
2024/03/09 09:51:12;;;;;;;8.95;3.10;;;;;;;;;;5011075;28;20542;-96
2024/03/09 09:53:38;;;;;;;7.57;3.15;;;;;;;;;;5011525;28;20030;-96
2024/03/09 09:56:05;;;;;;;4.63;2.65;;;;;;;;;;5011377;28;20022;-96
2024/03/09 09:58:31;;;;;;;5.10;2.28;;;;;;;;;;5012797;28;20411;-96
2024/03/09 10:00:57;;;;;;;5.45;2.60;;;;;;;;;;5011693;28;20018;-96
2024/03/09 10:03:24;;;;;;;5.00;2.40;;;;;;;;;;5012806;28;20052;-96
2024/03/09 10:05:49;;;;;;;4.93;3.13;;;;;;;;;;5012875;28;20373;-96
2024/03/09 10:08:15;;;;;;;4.57;1.98;;;;;;;;;;5013523;28;20052;-96
2024/03/09 10:10:47;;;;;;;3.33;1.30;;;;;;;;;;5016985;28;20022;-96
2024/03/09 10:13:17;;;;;;;4.40;1.73;;;;;;;;;;5014291;28;20467;-96
2024/03/09 10:15:46;;;;;;;2.35;1.30;;;;;;;;;;5015882;28;20030;-96
2024/03/09 10:18:13;;;;;;;3.35;1.35;;;;;;;;;;5023381;28;20099;-96
2024/03/09 10:21:05;;;;;;;;;;;;;;;;;;;;;
2024/03/09 10:23:38;;;;;;;2.42;1.05;;;;;;;;;;5006538;23;20051;-95
2024/03/09 10:26:06;;;;;;;3.42;1.20;;;;;;;;;;5000299;28;20046;-96
2024/03/09 10:28:34;;;;;;;2.28;1.05;;;;;;;;;;4992994;28;20488;-96
2024/03/09 10:31:01;;;;;;;1.63;0.98;;;;;;;;;;4991672;28;20018;-92
2024/03/09 10:33:28;;;;;;;1.35;0.80;;;;;;;;;;4991227;28;20038;-93
2024/03/09 10:35:57;;;;;;;3.72;1.08;;;;;;;;;;4993073;28;20556;-95
2024/03/09 10:38:22;;;;;;;4.47;1.00;;;;;;;;;;4994671;28;20081;-92
2024/03/09 10:40:51;;;;;;;3.17;1.27;;;;;;;;;;4993368;28;20027;-94
2024/03/09 10:43:17;;;;;;;2.45;1.00;;;;;;;;;;4995404;28;20023;-95
2024/03/09 10:45:45;;;;;;;5.05;1.50;;;;;;;;;;4993472;28;20018;-94
2024/03/09 10:48:12;;;;;;;5.72;1.13;;;;;;;;;;4991385;28;20508;-95
2024/03/09 10:50:49;;;;;;;2.72;1.02;;;;;;;;;;4992119;28;20460;-95
2024/03/09 10:53:27;;;;;;;3.58;1.00;;;;;;;;;;4991924;28;20389;-93
2024/03/09 10:55:52;;;;;;;2.10;0.88;;;;;;;;;;4993960;28;20049;-94
2024/03/09 10:58:18;;;;;;;4.85;1.40;;;;;;;;;;4992005;28;20464;-94
2024/03/09 11:00:49;;;;;;;4.90;1.20;;;;;;;;;;4991818;28;20014;-94
2024/03/09 11:03:14;;;;;;;;;;;;;;;;;;4995449;28;20045;-94
2024/03/09 11:05:44;;;;;;;4.53;1.57;;;;;;;;;;4995661;28;19909;-95
2024/03/09 11:08:09;;;;;;;4.45;1.00;;;;;;;;;;4992538;28;20268;-93
2024/03/09 11:10:36;;;;;;;2.30;1.20;;;;;;;;;;5000048;28;20511;-92
2024/03/09 11:13:02;;;;;;;5.32;2.35;;;;;;;;;;5000292;28;20080;-93
2024/03/09 11:15:36;;;;;;;5.03;1.00;;;;;;;;;;4993424;28;20061;-95
2024/03/09 11:18:06;;;;;;;3.53;1.40;;;;;;;;;;4993671;28;20225;-94
2024/03/09 11:20:31;;;;;;;4.18;1.40;;;;;;;;;;4992514;28;20034;-96
2024/03/09 11:22:58;;;;;;;2.65;1.23;;;;;;;;;;4994009;28;20374;-95
2024/03/09 11:25:42;;;;;;;6.38;1.40;;;;;;;;;;4995621;28;20088;-93
2024/03/09 11:28:07;;;;;;;3.45;1.40;;;;;;;;;;4995664;28;20023;-94
2024/03/09 11:30:33;;;;;;;3.78;1.20;;;;;;;;;;4999142;28;20037;-95
2024/03/09 11:33:01;;;;;;;4.45;1.30;;;;;;;;;;4997422;28;20067;-95
2024/03/09 11:35:27;;;;;;;4.05;1.10;;;;;;;;;;4995152;28;20033;-95
2024/03/09 11:37:53;;;;;;;7.25;1.50;;;;;;;;;;4995973;28;20461;-94
2024/03/09 11:40:18;;;;;;;4.55;1.20;;;;;;;;;;4996006;28;20023;-94
2024/03/09 11:42:46;;;;;;;2.50;1.23;;;;;;;;;;4997551;28;20038;-95
2024/03/09 11:45:15;;;;;;;3.80;1.17;;;;;;;;;;4993942;28;20022;-91
2024/03/09 11:47:40;;;;;;;6.20;1.52;;;;;;;;;;4993594;28;20072;-92
2024/03/09 11:50:06;;;;;;;3.80;1.02;;;;;;;;;;5000175;28;20070;-91
2024/03/09 11:52:32;;;;;;;3.25;1.30;;;;;;;;;;4994499;28;20041;-92
2024/03/09 11:55:02;;;;;;;3.25;1.30;;;;;;;;;;4994909;28;20026;-93
2024/03/09 11:57:29;;;;;;;2.15;0.98;;;;;;;;;;4994013;28;20014;-93
2024/03/09 11:59:56;;;;;;;4.85;1.48;;;;;;;;;;4993766;28;20109;-93
2024/03/09 12:02:23;;;;;;;3.65;1.85;;;;;;;;;;4993616;28;20358;-92
2024/03/09 12:04:48;;;;;;;6.97;2.55;;;;;;;;;;4992710;28;20031;-92
2024/03/09 12:07:15;;;;;;;3.00;1.30;;;;;;;;;;4994367;28;20026;-90
2024/03/09 12:09:44;;;;;;;5.07;1.10;;;;;;;;;;4994537;28;20381;-91
2024/03/09 12:12:12;;;;;;;3.33;1.10;;;;;;;;;;4994415;28;20015;-90
2024/03/09 12:14:38;;;;;;;3.17;1.40;;;;;;;;;;4994562;28;20034;-92
2024/03/09 12:17:03;;;;;;;3.08;1.38;;;;;;;;;;4995534;28;20014;-92
2024/03/09 12:19:30;;;;;;;3.25;1.10;;;;;;;;;;4993799;28;20037;-93
2024/03/09 12:21:55;;;;;;;1.27;1.00;;;;;;;;;;4994194;28;20145;-89
2024/03/09 12:24:22;;;;;;;8.00;1.60;;;;;;;;;;4994116;28;20150;-88
2024/03/09 12:26:47;;;;;;;5.32;1.13;;;;;;;;;;4994201;28;20046;-89
2024/03/09 12:29:12;;;;;;;2.78;1.15;;;;;;;;;;4993825;28;20053;-90
2024/03/09 12:31:38;;;;;;;3.58;1.05;;;;;;;;;;4993876;28;20069;-90
2024/03/09 12:34:07;;;;;;;5.90;1.77;;;;;;;;;;4993268;28;20113;-89
2024/03/09 12:36:36;;;;;;;3.08;1.20;;;;;;;;;;5003334;28;20114;-90
2024/03/09 12:39:09;;;;;;;3.53;1.08;;;;;;;;;;4992315;28;20076;-92
2024/03/09 12:41:35;;;;;;;1.85;0.80;;;;;;;;;;5004388;28;20029;-92
2024/03/09 12:44:04;;;;;;;2.92;0.93;;;;;;;;;;5002158;28;20105;-92
2024/03/09 12:46:36;;;;;;;2.22;0.88;;;;;;;;;;4997171;28;20022;-94
2024/03/09 12:49:08;;;;;;;2.10;0.90;;;;;;;;;;4993164;28;20037;-92
2024/03/09 12:51:34;;;;;;;5.05;0.88;;;;;;;;;;4992444;28;20022;-92
2024/03/09 12:54:06;;;;;;;4.22;1.00;;;;;;;;;;5000854;28;20029;-92
2024/03/09 12:56:32;;;;;;;3.13;1.02;;;;;;;;;;4997383;28;20022;-91
2024/03/09 12:58:59;;;;;;;4.10;1.55;;;;;;;;;;5006641;28;20025;-92
2024/03/09 13:01:25;;;;;;;3.17;1.35;;;;;;;;;;5002474;28;20022;-92
2024/03/09 13:03:54;;;;;;;2.63;0.90;;;;;;;;;;4993879;28;20165;-96
2024/03/09 13:06:20;;;;;;;2.05;1.02;;;;;;;;;;4993138;28;20107;-91
2024/03/09 13:08:47;;;;;;;2.05;0.73;;;;;;;;;;4992553;28;20081;-92
2024/03/09 13:11:12;;;;;;;1.98;1.10;;;;;;;;;;4992749;28;20030;-93
2024/03/09 13:13:37;;;;;;;1.83;0.73;;;;;;;;;;4994195;28;20026;-92
2024/03/09 13:16:04;;;;;;;2.20;1.03;;;;;;;;;;4993260;28;20109;-91
2024/03/09 13:18:31;;;;;;;2.60;0.90;;;;;;;;;;4992018;28;20276;-93
2024/03/09 13:20:56;;;;;;;2.13;1.00;;;;;;;;;;4997433;28;20614;-96
2024/03/09 13:23:22;;;;;;;2.63;1.05;;;;;;;;;;5002631;28;20026;-93
2024/03/09 13:25:49;;;;;;;3.58;1.50;;;;;;;;;;4996794;28;20064;-93
2024/03/09 13:28:14;;;;;;;2.80;1.45;;;;;;;;;;5001860;28;20022;-93
2024/03/09 13:30:40;;;;;;;1.58;1.20;;;;;;;;;;4996921;28;20436;-96
2024/03/09 13:33:09;;;;;;;2.90;1.13;;;;;;;;;;5011811;28;20021;-96
2024/03/09 13:35:37;;;;;;;1.88;1.35;;;;;;;;;;5010910;28;20523;-95
2024/03/09 13:38:04;;;;;;;4.97;1.23;;;;;;;;;;4994331;28;20019;-95
2024/03/09 13:40:31;;;;;;;2.25;1.00;;;;;;;;;;5018918;28;20021;-95
2024/03/09 13:43:01;;;;;;;2.85;1.10;;;;;;;;;;5000640;28;20074;-96
2024/03/09 13:45:47;;;;;;;2.35;1.10;;;;;;;;;;5012540;28;20062;-96
2024/03/09 13:48:13;;;;;;;2.85;1.35;;;;;;;;;;4992948;28;20473;-95
2024/03/09 13:50:38;;;;;;;3.17;1.17;;;;;;;;;;4993317;28;20026;-95
2024/03/09 13:53:04;;;;;;;2.72;1.02;;;;;;;;;;4993218;28;20065;-93
2024/03/09 13:55:39;;;;;;;2.97;1.50;;;;;;;;;;4999954;28;20105;-95
2024/03/09 13:58:04;;;;;;;2.95;1.20;;;;;;;;;;5016907;28;20025;-96
2024/03/09 14:00:30;;;;;;;3.25;1.38;;;;;;;;;;5016684;28;20014;-95
2024/03/09 14:02:59;;;;;;;4.82;1.88;;;;;;;;;;5010096;28;20029;-94
2024/03/09 14:05:27;;;;;;;2.92;1.70;;;;;;;;;;5012054;28;20018;-94
2024/03/09 14:07:57;;;;;;;2.75;1.90;;;;;;;;;;5003445;28;20485;-95
2024/03/09 14:10:25;;;;;;;3.80;1.88;;;;;;;;;;4999598;28;20109;-95
2024/03/09 14:12:53;;;;;;;6.95;1.88;;;;;;;;;;4996358;28;20060;-93
2024/03/09 14:15:21;;;;;;;3.90;1.75;;;;;;;;;;4992525;28;20066;-93
2024/03/09 14:17:47;;;;;;;3.90;2.15;;;;;;;;;;4991832;28;20425;-93
2024/03/09 14:20:16;;;;;;;7.30;2.03;;;;;;;;;;5005102;28;20025;-93
2024/03/09 14:22:41;;;;;;;4.32;2.00;;;;;;;;;;4985095;28;20485;-95
2024/03/09 14:25:14;;;;;;;2.63;1.75;;;;;;;;;;5002821;28;20080;-92